sensor_id;sensor_type;location;lat;lon;timestamp;pressure;altitude;pressure_sealevel;temperature;humidity
76680;BME280;65597;51.520;-0.224;2023-04-03T00:01:05;103086.06;;;9.12;32.60
76680;BME280;65597;51.520;-0.224;2023-04-03T00:03:30;103085.22;;;9.37;32.54
76680;BME280;65597;51.520;-0.224;2023-04-03T00:05:55;103085.22;;;9.63;32.63
76680;BME280;65597;51.520;-0.224;2023-04-03T00:08:21;103083.87;;;9.43;32.59
76680;BME280;65597;51.520;-0.224;2023-04-03T00:10:46;103084.99;;;9.29;32.67
76680;BME280;65597;51.520;-0.224;2023-04-03T00:13:13;103086.64;;;9.36;32.74
76680;BME280;65597;51.520;-0.224;2023-04-03T00:15:38;103087.91;;;9.55;32.71
76680;BME280;65597;51.520;-0.224;2023-04-03T00:18:03;103089.43;;;9.32;32.76
76680;BME280;65597;51.520;-0.224;2023-04-03T00:20:28;103087.30;;;9.50;32.76
76680;BME280;65597;51.520;-0.224;2023-04-03T00:22:54;103083.69;;;9.20;32.99
76680;BME280;65597;51.520;-0.224;2023-04-03T00:25:24;103081.14;;;9.40;33.15
76680;BME280;65597;51.520;-0.224;2023-04-03T00:27:44;103080.67;;;8.93;33.51
76680;BME280;65597;51.520;-0.224;2023-04-03T00:30:13;103076.71;;;9.09;33.49
76680;BME280;65597;51.520;-0.224;2023-04-03T00:32:35;103075.46;;;9.21;33.26
76680;BME280;65597;51.520;-0.224;2023-04-03T00:35:01;103075.54;;;9.16;33.86
76680;BME280;65597;51.520;-0.224;2023-04-03T00:37:26;103070.77;;;9.40;33.37
76680;BME280;65597;51.520;-0.224;2023-04-03T00:39:51;103070.83;;;9.08;33.55
76680;BME280;65597;51.520;-0.224;2023-04-03T00:42:17;103070.64;;;8.84;33.65
76680;BME280;65597;51.520;-0.224;2023-04-03T00:47:09;103069.98;;;9.09;33.64
76680;BME280;65597;51.520;-0.224;2023-04-03T00:49:35;103065.83;;;9.04;33.54
76680;BME280;65597;51.520;-0.224;2023-04-03T00:51:59;103064.54;;;9.01;33.70
76680;BME280;65597;51.520;-0.224;2023-04-03T00:54:25;103062.83;;;9.08;33.72
76680;BME280;65597;51.520;-0.224;2023-04-03T00:56:51;103059.39;;;9.06;33.86
76680;BME280;65597;51.520;-0.224;2023-04-03T00:59:19;103056.13;;;8.98;33.96
76680;BME280;65597;51.520;-0.224;2023-04-03T01:01:42;103056.46;;;8.98;33.71
76680;BME280;65597;51.520;-0.224;2023-04-03T01:06:34;103062.64;;;8.92;33.78
76680;BME280;65597;51.520;-0.224;2023-04-03T01:08:57;103061.39;;;8.91;33.83
76680;BME280;65597;51.520;-0.224;2023-04-03T01:11:23;103059.00;;;8.96;33.77
76680;BME280;65597;51.520;-0.224;2023-04-03T01:13:48;103059.45;;;8.71;33.63
76680;BME280;65597;51.520;-0.224;2023-04-03T01:16:13;103059.91;;;8.93;33.50
76680;BME280;65597;51.520;-0.224;2023-04-03T01:18:40;103058.71;;;8.96;33.73
76680;BME280;65597;51.520;-0.224;2023-04-03T01:23:39;103053.58;;;8.94;33.76
76680;BME280;65597;51.520;-0.224;2023-04-03T01:25:57;103054.11;;;8.79;34.11
76680;BME280;65597;51.520;-0.224;2023-04-03T01:28:23;103055.02;;;8.84;33.79
76680;BME280;65597;51.520;-0.224;2023-04-03T01:30:51;103052.93;;;8.93;33.79
76680;BME280;65597;51.520;-0.224;2023-04-03T01:33:12;103051.09;;;8.96;33.50
76680;BME280;65597;51.520;-0.224;2023-04-03T01:35:38;103049.52;;;8.89;33.69
76680;BME280;65597;51.520;-0.224;2023-04-03T01:38:03;103050.51;;;8.96;33.56
76680;BME280;65597;51.520;-0.224;2023-04-03T01:40:28;103050.44;;;8.65;33.70
76680;BME280;65597;51.520;-0.224;2023-04-03T01:42:54;103048.14;;;8.86;33.95
76680;BME280;65597;51.520;-0.224;2023-04-03T01:45:19;103046.13;;;8.90;34.11
76680;BME280;65597;51.520;-0.224;2023-04-03T01:47:45;103045.68;;;8.95;33.93
76680;BME280;65597;51.520;-0.224;2023-04-03T01:50:11;103042.93;;;8.90;33.87
76680;BME280;65597;51.520;-0.224;2023-04-03T01:52:36;103042.33;;;8.68;33.96
76680;BME280;65597;51.520;-0.224;2023-04-03T01:55:01;103043.93;;;8.74;33.94
76680;BME280;65597;51.520;-0.224;2023-04-03T01:57:27;103042.49;;;8.72;33.98
76680;BME280;65597;51.520;-0.224;2023-04-03T01:59:52;103043.38;;;8.84;34.02
76680;BME280;65597;51.520;-0.224;2023-04-03T02:02:18;103040.44;;;8.62;34.09
76680;BME280;65597;51.520;-0.224;2023-04-03T02:04:43;103042.38;;;8.76;33.97
76680;BME280;65597;51.520;-0.224;2023-04-03T02:07:09;103045.49;;;8.78;33.82
76680;BME280;65597;51.520;-0.224;2023-04-03T02:09:34;103045.17;;;8.85;33.72
76680;BME280;65597;51.520;-0.224;2023-04-03T02:12:00;103045.11;;;8.91;33.62
76680;BME280;65597;51.520;-0.224;2023-04-03T02:14:25;103045.13;;;8.81;33.82
76680;BME280;65597;51.520;-0.224;2023-04-03T02:16:51;103047.81;;;8.63;34.21
76680;BME280;65597;51.520;-0.224;2023-04-03T02:19:16;103047.05;;;9.02;34.05
76680;BME280;65597;51.520;-0.224;2023-04-03T02:21:42;103045.99;;;9.11;33.84
76680;BME280;65597;51.520;-0.224;2023-04-03T02:24:07;103043.67;;;8.98;33.97
76680;BME280;65597;51.520;-0.224;2023-04-03T02:26:34;103041.42;;;8.75;33.84
76680;BME280;65597;51.520;-0.224;2023-04-03T02:28:58;103040.49;;;8.97;33.81
76680;BME280;65597;51.520;-0.224;2023-04-03T02:31:24;103039.53;;;8.81;33.75
76680;BME280;65597;51.520;-0.224;2023-04-03T02:33:49;103037.08;;;8.76;33.71
76680;BME280;65597;51.520;-0.224;2023-04-03T02:36:15;103036.15;;;8.66;33.97
76680;BME280;65597;51.520;-0.224;2023-04-03T02:38:40;103033.92;;;8.85;33.73
76680;BME280;65597;51.520;-0.224;2023-04-03T02:41:08;103032.36;;;8.88;33.73
76680;BME280;65597;51.520;-0.224;2023-04-03T02:43:31;103029.99;;;9.02;33.75
76680;BME280;65597;51.520;-0.224;2023-04-03T02:45:56;103030.31;;;8.74;33.86
76680;BME280;65597;51.520;-0.224;2023-04-03T02:48:23;103031.07;;;8.98;33.75
76680;BME280;65597;51.520;-0.224;2023-04-03T02:50:49;103029.37;;;8.70;33.81
76680;BME280;65597;51.520;-0.224;2023-04-03T02:53:13;103029.88;;;8.58;34.02
76680;BME280;65597;51.520;-0.224;2023-04-03T02:55:38;103030.45;;;8.63;33.96
76680;BME280;65597;51.520;-0.224;2023-04-03T02:58:04;103033.25;;;8.86;33.84
76680;BME280;65597;51.520;-0.224;2023-04-03T03:00:29;103034.37;;;8.66;33.78
76680;BME280;65597;51.520;-0.224;2023-04-03T03:02:55;103032.47;;;8.69;33.83
76680;BME280;65597;51.520;-0.224;2023-04-03T03:05:20;103032.75;;;9.04;33.75
76680;BME280;65597;51.520;-0.224;2023-04-03T03:07:45;103032.17;;;8.78;33.68
76680;BME280;65597;51.520;-0.224;2023-04-03T03:10:10;103027.29;;;8.84;33.63
76680;BME280;65597;51.520;-0.224;2023-04-03T03:12:36;103025.09;;;8.65;33.80
76680;BME280;65597;51.520;-0.224;2023-04-03T03:15:02;103022.14;;;8.81;33.58
76680;BME280;65597;51.520;-0.224;2023-04-03T03:17:27;103022.66;;;8.55;34.12
76680;BME280;65597;51.520;-0.224;2023-04-03T03:19:53;103021.66;;;8.61;33.97
76680;BME280;65597;51.520;-0.224;2023-04-03T03:22:19;103020.03;;;8.74;34.09
76680;BME280;65597;51.520;-0.224;2023-04-03T03:24:43;103021.18;;;8.78;33.95
76680;BME280;65597;51.520;-0.224;2023-04-03T03:27:09;103019.79;;;8.50;34.03
76680;BME280;65597;51.520;-0.224;2023-04-03T03:29:34;103019.50;;;8.33;34.25
76680;BME280;65597;51.520;-0.224;2023-04-03T03:32:00;103021.28;;;8.33;34.14
76680;BME280;65597;51.520;-0.224;2023-04-03T03:34:25;103018.07;;;8.50;34.35
76680;BME280;65597;51.520;-0.224;2023-04-03T03:36:51;103020.27;;;8.67;34.14
76680;BME280;65597;51.520;-0.224;2023-04-03T03:39:17;103019.39;;;8.59;34.05
76680;BME280;65597;51.520;-0.224;2023-04-03T03:41:42;103016.21;;;8.56;33.98
76680;BME280;65597;51.520;-0.224;2023-04-03T03:44:07;103014.97;;;8.85;33.88
76680;BME280;65597;51.520;-0.224;2023-04-03T03:46:33;103012.44;;;8.60;34.02
76680;BME280;65597;51.520;-0.224;2023-04-03T03:48:58;103013.53;;;8.03;34.36
76680;BME280;65597;51.520;-0.224;2023-04-03T03:51:26;103013.30;;;8.48;34.01
76680;BME280;65597;51.520;-0.224;2023-04-03T03:53:49;103012.65;;;8.40;34.15
76680;BME280;65597;51.520;-0.224;2023-04-03T03:56:15;103007.85;;;8.56;34.14
76680;BME280;65597;51.520;-0.224;2023-04-03T03:58:40;103008.45;;;8.01;34.15
76680;BME280;65597;51.520;-0.224;2023-04-03T04:01:06;103009.27;;;8.63;33.98
76680;BME280;65597;51.520;-0.224;2023-04-03T04:03:31;103005.89;;;8.65;33.87
76680;BME280;65597;51.520;-0.224;2023-04-03T04:05:56;103006.00;;;8.42;34.05
76680;BME280;65597;51.520;-0.224;2023-04-03T04:08:22;103008.64;;;8.45;33.98
76680;BME280;65597;51.520;-0.224;2023-04-03T04:10:47;103009.14;;;7.76;34.54
76680;BME280;65597;51.520;-0.224;2023-04-03T04:13:12;103007.33;;;8.56;34.10
76680;BME280;65597;51.520;-0.224;2023-04-03T04:15:39;103008.08;;;8.39;34.47
76680;BME280;65597;51.520;-0.224;2023-04-03T04:18:03;103006.10;;;8.25;34.11
76680;BME280;65597;51.520;-0.224;2023-04-03T04:20:29;103003.90;;;8.01;34.34
76680;BME280;65597;51.520;-0.224;2023-04-03T04:22:54;103002.56;;;8.02;34.52
76680;BME280;65597;51.520;-0.224;2023-04-03T04:25:20;103006.64;;;8.00;34.51
76680;BME280;65597;51.520;-0.224;2023-04-03T04:27:47;103012.54;;;8.07;34.26
76680;BME280;65597;51.520;-0.224;2023-04-03T04:30:11;103011.76;;;8.34;34.49
76680;BME280;65597;51.520;-0.224;2023-04-03T04:32:36;103011.00;;;8.40;34.42
76680;BME280;65597;51.520;-0.224;2023-04-03T04:35:02;103010.76;;;7.85;34.53
76680;BME280;65597;51.520;-0.224;2023-04-03T04:37:27;103008.42;;;8.42;34.30
76680;BME280;65597;51.520;-0.224;2023-04-03T04:39:54;103010.86;;;8.33;34.38
76680;BME280;65597;51.520;-0.224;2023-04-03T04:42:18;103008.62;;;8.20;34.49
76680;BME280;65597;51.520;-0.224;2023-04-03T04:44:44;103006.30;;;8.19;34.37
76680;BME280;65597;51.520;-0.224;2023-04-03T04:47:09;103007.66;;;8.37;34.18
76680;BME280;65597;51.520;-0.224;2023-04-03T04:49:35;103007.65;;;8.20;34.07
76680;BME280;65597;51.520;-0.224;2023-04-03T04:52:03;103009.42;;;8.31;34.27
76680;BME280;65597;51.520;-0.224;2023-04-03T04:54:26;103006.07;;;8.42;34.29
76680;BME280;65597;51.520;-0.224;2023-04-03T04:56:51;103010.58;;;8.06;34.28
76680;BME280;65597;51.520;-0.224;2023-04-03T04:59:17;103007.66;;;8.36;34.20
76680;BME280;65597;51.520;-0.224;2023-04-03T05:01:42;103008.62;;;8.31;34.21
76680;BME280;65597;51.520;-0.224;2023-04-03T05:04:10;103011.53;;;7.87;34.27
76680;BME280;65597;51.520;-0.224;2023-04-03T05:06:33;103012.04;;;8.14;34.29
76680;BME280;65597;51.520;-0.224;2023-04-03T05:08:59;103010.11;;;8.20;34.47
76680;BME280;65597;51.520;-0.224;2023-04-03T05:11:24;103011.14;;;8.24;34.50
76680;BME280;65597;51.520;-0.224;2023-04-03T05:13:49;103009.70;;;8.23;34.78
76680;BME280;65597;51.520;-0.224;2023-04-03T05:16:15;103013.28;;;8.49;34.53
76680;BME280;65597;51.520;-0.224;2023-04-03T05:18:40;103013.72;;;7.95;34.97
76680;BME280;65597;51.520;-0.224;2023-04-03T05:21:05;103015.88;;;8.24;34.81
76680;BME280;65597;51.520;-0.224;2023-04-03T05:23:31;103017.13;;;8.12;35.12
76680;BME280;65597;51.520;-0.224;2023-04-03T05:25:57;103018.25;;;8.10;35.19
76680;BME280;65597;51.520;-0.224;2023-04-03T05:28:23;103014.93;;;8.08;35.16
76680;BME280;65597;51.520;-0.224;2023-04-03T05:30:53;103015.86;;;8.13;34.90
76680;BME280;65597;51.520;-0.224;2023-04-03T05:33:13;103017.24;;;7.84;34.67
76680;BME280;65597;51.520;-0.224;2023-04-03T05:35:39;103016.94;;;8.37;34.78
76680;BME280;65597;51.520;-0.224;2023-04-03T05:38:05;103024.13;;;8.19;34.55
76680;BME280;65597;51.520;-0.224;2023-04-03T05:40:30;103025.18;;;8.16;34.86
76680;BME280;65597;51.520;-0.224;2023-04-03T05:42:55;103024.38;;;8.52;34.70
76680;BME280;65597;51.520;-0.224;2023-04-03T05:45:21;103025.20;;;8.34;34.79
76680;BME280;65597;51.520;-0.224;2023-04-03T05:47:46;103024.37;;;8.37;34.88
76680;BME280;65597;51.520;-0.224;2023-04-03T05:50:11;103022.10;;;8.47;34.79
76680;BME280;65597;51.520;-0.224;2023-04-03T05:52:38;103022.51;;;8.21;35.16
76680;BME280;65597;51.520;-0.224;2023-04-03T05:55:03;103023.63;;;7.97;35.02
76680;BME280;65597;51.520;-0.224;2023-04-03T05:57:28;103025.41;;;7.84;35.33
76680;BME280;65597;51.520;-0.224;2023-04-03T05:59:53;103030.94;;;8.39;35.31
76680;BME280;65597;51.520;-0.224;2023-04-03T06:02:21;103028.00;;;8.32;35.33
76680;BME280;65597;51.520;-0.224;2023-04-03T06:04:44;103027.34;;;8.06;35.46
76680;BME280;65597;51.520;-0.224;2023-04-03T06:07:11;103030.51;;;8.47;34.97
76680;BME280;65597;51.520;-0.224;2023-04-03T06:09:35;103027.58;;;8.47;35.22
76680;BME280;65597;51.520;-0.224;2023-04-03T06:12:01;103034.04;;;8.09;35.12
76680;BME280;65597;51.520;-0.224;2023-04-03T06:14:31;103032.97;;;8.43;35.24
76680;BME280;65597;51.520;-0.224;2023-04-03T06:16:53;103035.55;;;8.74;35.42
76680;BME280;65597;51.520;-0.224;2023-04-03T06:19:17;103037.65;;;8.24;35.34
76680;BME280;65597;51.520;-0.224;2023-04-03T06:21:43;103038.42;;;8.21;35.29
76680;BME280;65597;51.520;-0.224;2023-04-03T06:24:09;103036.57;;;8.36;35.14
76680;BME280;65597;51.520;-0.224;2023-04-03T06:26:34;103036.63;;;8.21;34.95
76680;BME280;65597;51.520;-0.224;2023-04-03T06:28:59;103042.75;;;8.90;35.23
76680;BME280;65597;51.520;-0.224;2023-04-03T06:31:29;103040.78;;;8.49;35.28
76680;BME280;65597;51.520;-0.224;2023-04-03T06:33:50;103041.37;;;8.84;35.05
76680;BME280;65597;51.520;-0.224;2023-04-03T06:36:17;103044.23;;;8.87;35.29
76680;BME280;65597;51.520;-0.224;2023-04-03T06:38:40;103047.30;;;8.70;34.69
76680;BME280;65597;51.520;-0.224;2023-04-03T06:41:06;103050.20;;;8.83;34.59
76680;BME280;65597;51.520;-0.224;2023-04-03T06:43:31;103050.15;;;8.84;34.67
76680;BME280;65597;51.520;-0.224;2023-04-03T06:45:57;103047.30;;;9.17;34.78
76680;BME280;65597;51.520;-0.224;2023-04-03T06:48:23;103043.72;;;9.06;34.41
76680;BME280;65597;51.520;-0.224;2023-04-03T06:50:49;103044.49;;;9.11;34.64
76680;BME280;65597;51.520;-0.224;2023-04-03T06:53:16;103044.99;;;9.13;34.58
76680;BME280;65597;51.520;-0.224;2023-04-03T06:55:40;103044.82;;;9.22;34.71
76680;BME280;65597;51.520;-0.224;2023-04-03T06:58:05;103045.13;;;9.25;34.50
76680;BME280;65597;51.520;-0.224;2023-04-03T07:00:31;103041.94;;;9.31;34.57
76680;BME280;65597;51.520;-0.224;2023-04-03T07:02:56;103041.62;;;9.08;34.89
76680;BME280;65597;51.520;-0.224;2023-04-03T07:05:23;103046.16;;;9.18;34.60
76680;BME280;65597;51.520;-0.224;2023-04-03T07:07:47;103043.63;;;9.25;34.70
76680;BME280;65597;51.520;-0.224;2023-04-03T07:10:12;103044.85;;;9.30;34.56
76680;BME280;65597;51.520;-0.224;2023-04-03T07:12:38;103045.20;;;9.27;34.95
76680;BME280;65597;51.520;-0.224;2023-04-03T07:15:04;103040.99;;;9.30;34.75
76680;BME280;65597;51.520;-0.224;2023-04-03T07:17:28;103041.47;;;9.38;35.05
76680;BME280;65597;51.520;-0.224;2023-04-03T07:19:54;103043.21;;;9.35;35.25
76680;BME280;65597;51.520;-0.224;2023-04-03T07:22:20;103039.77;;;9.35;35.00
76680;BME280;65597;51.520;-0.224;2023-04-03T07:24:45;103039.33;;;9.41;35.28
76680;BME280;65597;51.520;-0.224;2023-04-03T07:27:16;103039.43;;;9.36;35.44
76680;BME280;65597;51.520;-0.224;2023-04-03T07:29:36;103041.43;;;9.45;35.15
76680;BME280;65597;51.520;-0.224;2023-04-03T07:32:02;103037.26;;;9.38;35.06
76680;BME280;65597;51.520;-0.224;2023-04-03T07:34:27;103035.60;;;9.54;35.42
76680;BME280;65597;51.520;-0.224;2023-04-03T07:36:52;103040.65;;;9.38;35.43
76680;BME280;65597;51.520;-0.224;2023-04-03T07:39:18;103041.40;;;9.45;35.14
76680;BME280;65597;51.520;-0.224;2023-04-03T07:41:43;103037.66;;;9.55;35.64
76680;BME280;65597;51.520;-0.224;2023-04-03T07:44:08;103033.31;;;9.64;35.53
76680;BME280;65597;51.520;-0.224;2023-04-03T07:46:34;103035.81;;;9.73;35.62
76680;BME280;65597;51.520;-0.224;2023-04-03T07:48:59;103039.46;;;9.61;35.30
76680;BME280;65597;51.520;-0.224;2023-04-03T07:51:25;103036.49;;;9.61;35.45
76680;BME280;65597;51.520;-0.224;2023-04-03T07:53:50;103034.35;;;9.64;35.36
76680;BME280;65597;51.520;-0.224;2023-04-03T07:56:16;103034.99;;;9.59;35.35
76680;BME280;65597;51.520;-0.224;2023-04-03T07:58:41;103039.54;;;9.43;35.44
76680;BME280;65597;51.520;-0.224;2023-04-03T08:01:07;103041.36;;;9.61;35.46
76680;BME280;65597;51.520;-0.224;2023-04-03T08:03:33;103043.50;;;9.63;35.57
76680;BME280;65597;51.520;-0.224;2023-04-03T08:06:02;103050.87;;;9.70;35.08
76680;BME280;65597;51.520;-0.224;2023-04-03T08:08:24;103051.34;;;10.02;35.34
76680;BME280;65597;51.520;-0.224;2023-04-03T08:10:50;103052.63;;;9.66;35.44
76680;BME280;65597;51.520;-0.224;2023-04-03T08:13:14;103049.82;;;9.98;35.53
76680;BME280;65597;51.520;-0.224;2023-04-03T08:15:39;103047.25;;;10.05;35.14
76680;BME280;65597;51.520;-0.224;2023-04-03T08:18:05;103047.27;;;9.58;35.94
76680;BME280;65597;51.520;-0.224;2023-04-03T08:20:30;103047.61;;;9.91;35.64
76680;BME280;65597;51.520;-0.224;2023-04-03T08:22:56;103050.95;;;10.07;35.24
76680;BME280;65597;51.520;-0.224;2023-04-03T08:25:21;103050.93;;;9.92;35.37
76680;BME280;65597;51.520;-0.224;2023-04-03T08:27:47;103050.47;;;9.86;35.47
76680;BME280;65597;51.520;-0.224;2023-04-03T08:30:15;103051.79;;;9.84;35.64
76680;BME280;65597;51.520;-0.224;2023-04-03T08:32:38;103053.63;;;9.40;36.26
76680;BME280;65597;51.520;-0.224;2023-04-03T08:35:04;103054.62;;;9.49;36.39
76680;BME280;65597;51.520;-0.224;2023-04-03T08:37:29;103054.93;;;10.10;36.00
76680;BME280;65597;51.520;-0.224;2023-04-03T08:39:54;103058.57;;;9.63;36.26
76680;BME280;65597;51.520;-0.224;2023-04-03T08:42:32;103053.77;;;9.72;35.89
76680;BME280;65597;51.520;-0.224;2023-04-03T08:44:48;103053.47;;;9.76;36.22
76680;BME280;65597;51.520;-0.224;2023-04-03T08:47:18;103050.33;;;9.62;36.44
76680;BME280;65597;51.520;-0.224;2023-04-03T08:49:40;103054.75;;;9.16;36.61
76680;BME280;65597;51.520;-0.224;2023-04-03T08:52:05;103052.24;;;9.72;36.50
76680;BME280;65597;51.520;-0.224;2023-04-03T08:54:30;103054.33;;;9.73;36.70
76680;BME280;65597;51.520;-0.224;2023-04-03T08:56:53;103057.08;;;10.06;36.98
76680;BME280;65597;51.520;-0.224;2023-04-03T08:59:24;103056.85;;;9.83;36.85
76680;BME280;65597;51.520;-0.224;2023-04-03T09:01:44;103058.64;;;9.79;36.87
76680;BME280;65597;51.520;-0.224;2023-04-03T09:04:11;103055.89;;;9.62;36.75
76680;BME280;65597;51.520;-0.224;2023-04-03T09:06:34;103054.80;;;10.10;36.48
76680;BME280;65597;51.520;-0.224;2023-04-03T09:09:09;103049.89;;;10.30;36.48
76680;BME280;65597;51.520;-0.224;2023-04-03T09:11:27;103049.37;;;10.09;36.55
76680;BME280;65597;51.520;-0.224;2023-04-03T09:13:54;103047.15;;;10.05;36.35
76680;BME280;65597;51.520;-0.224;2023-04-03T09:16:23;103047.46;;;9.98;36.48
76680;BME280;65597;51.520;-0.224;2023-04-03T09:18:45;103044.79;;;10.24;36.67
76680;BME280;65597;51.520;-0.224;2023-04-03T09:21:13;103039.99;;;10.02;36.72
76680;BME280;65597;51.520;-0.224;2023-04-03T09:23:36;103042.40;;;9.92;36.77
76680;BME280;65597;51.520;-0.224;2023-04-03T09:26:02;103037.98;;;10.15;36.54
76680;BME280;65597;51.520;-0.224;2023-04-03T09:28:23;103034.96;;;10.29;36.37
76680;BME280;65597;51.520;-0.224;2023-04-03T09:30:48;103033.72;;;10.38;36.25
76680;BME280;65597;51.520;-0.224;2023-04-03T09:33:14;103029.56;;;10.21;36.43
76680;BME280;65597;51.520;-0.224;2023-04-03T09:35:40;103027.19;;;10.33;35.92
76680;BME280;65597;51.520;-0.224;2023-04-03T09:38:16;103028.02;;;10.30;35.18
76680;BME280;65597;51.520;-0.224;2023-04-03T09:40:34;103027.09;;;10.35;35.47
76680;BME280;65597;51.520;-0.224;2023-04-03T09:42:59;103032.75;;;10.58;35.29
76680;BME280;65597;51.520;-0.224;2023-04-03T09:45:23;103029.13;;;10.50;35.12
76680;BME280;65597;51.520;-0.224;2023-04-03T09:47:47;103032.45;;;10.02;34.26
76680;BME280;65597;51.520;-0.224;2023-04-03T09:50:19;103030.41;;;10.25;33.85
76680;BME280;65597;51.520;-0.224;2023-04-03T09:52:38;103027.37;;;10.30;34.08
76680;BME280;65597;51.520;-0.224;2023-04-03T09:55:07;103026.58;;;10.40;34.40
76680;BME280;65597;51.520;-0.224;2023-04-03T09:57:32;103029.32;;;10.03;33.95
76680;BME280;65597;51.520;-0.224;2023-04-03T09:59:57;103031.40;;;9.67;33.73
76680;BME280;65597;51.520;-0.224;2023-04-03T10:02:32;103029.83;;;10.05;32.65
76680;BME280;65597;51.520;-0.224;2023-04-03T10:04:45;103025.27;;;10.11;32.93
76680;BME280;65597;51.520;-0.224;2023-04-03T10:07:26;103029.81;;;9.74;32.19
76680;BME280;65597;51.520;-0.224;2023-04-03T10:09:36;103028.14;;;10.49;32.38
76680;BME280;65597;51.520;-0.224;2023-04-03T10:12:03;103023.60;;;10.11;33.05
76680;BME280;65597;51.520;-0.224;2023-04-03T10:14:28;103022.33;;;10.46;32.84
76680;BME280;65597;51.520;-0.224;2023-04-03T10:16:59;103023.74;;;10.69;32.66
76680;BME280;65597;51.520;-0.224;2023-04-03T10:19:33;103025.20;;;10.22;33.60
76680;BME280;65597;51.520;-0.224;2023-04-03T10:21:47;103025.93;;;9.95;34.15
76680;BME280;65597;51.520;-0.224;2023-04-03T10:24:12;103031.19;;;10.19;33.82
76680;BME280;65597;51.520;-0.224;2023-04-03T10:26:41;103032.11;;;10.43;33.79
76680;BME280;65597;51.520;-0.224;2023-04-03T10:29:08;103033.32;;;10.19;33.43
76680;BME280;65597;51.520;-0.224;2023-04-03T10:31:33;103031.98;;;10.43;32.79
76680;BME280;65597;51.520;-0.224;2023-04-03T10:33:56;103030.15;;;10.69;32.51
76680;BME280;65597;51.520;-0.224;2023-04-03T10:36:26;103032.34;;;10.31;33.39
76680;BME280;65597;51.520;-0.224;2023-04-03T10:38:48;103029.90;;;10.75;33.23
76680;BME280;65597;51.520;-0.224;2023-04-03T10:41:14;103026.88;;;10.58;32.89
76680;BME280;65597;51.520;-0.224;2023-04-03T10:43:40;103025.43;;;10.14;33.41
76680;BME280;65597;51.520;-0.224;2023-04-03T10:46:03;103023.02;;;10.50;33.09
76680;BME280;65597;51.520;-0.224;2023-04-03T10:48:35;103023.27;;;10.65;33.52
76680;BME280;65597;51.520;-0.224;2023-04-03T10:50:58;103022.33;;;10.64;33.21
76680;BME280;65597;51.520;-0.224;2023-04-03T10:53:22;103018.56;;;11.02;33.18
76680;BME280;65597;51.520;-0.224;2023-04-03T10:55:45;103012.77;;;10.85;33.14
76680;BME280;65597;51.520;-0.224;2023-04-03T10:58:06;103014.40;;;10.78;32.80
76680;BME280;65597;51.520;-0.224;2023-04-03T11:00:37;103014.09;;;10.95;32.39
76680;BME280;65597;51.520;-0.224;2023-04-03T11:02:59;103015.90;;;11.33;32.15
76680;BME280;65597;51.520;-0.224;2023-04-03T11:05:34;103011.10;;;11.20;31.68
76680;BME280;65597;51.520;-0.224;2023-04-03T11:07:53;103016.71;;;11.35;31.92
76680;BME280;65597;51.520;-0.224;2023-04-03T11:10:17;103014.69;;;11.16;32.16
76680;BME280;65597;51.520;-0.224;2023-04-03T11:12:42;103012.38;;;11.46;31.52
76680;BME280;65597;51.520;-0.224;2023-04-03T11:15:06;103008.12;;;11.34;31.47
76680;BME280;65597;51.520;-0.224;2023-04-03T11:17:34;103010.66;;;11.30;32.33
76680;BME280;65597;51.520;-0.224;2023-04-03T11:20:01;103005.96;;;11.37;32.03
76680;BME280;65597;51.520;-0.224;2023-04-03T11:22:23;103003.93;;;11.36;31.89
76680;BME280;65597;51.520;-0.224;2023-04-03T11:24:54;103001.74;;;11.42;30.78
76680;BME280;65597;51.520;-0.224;2023-04-03T11:27:16;102994.15;;;11.37;30.23
76680;BME280;65597;51.520;-0.224;2023-04-03T11:29:39;102991.10;;;11.48;30.46
76680;BME280;65597;51.520;-0.224;2023-04-03T11:32:16;102992.76;;;11.41;29.11
76680;BME280;65597;51.520;-0.224;2023-04-03T11:34:33;102986.48;;;11.75;28.53
76680;BME280;65597;51.520;-0.224;2023-04-03T11:36:55;102976.67;;;10.52;29.48
76680;BME280;65597;51.520;-0.224;2023-04-03T11:39:22;102980.42;;;11.39;29.98
76680;BME280;65597;51.520;-0.224;2023-04-03T11:41:44;102975.43;;;11.66;29.33
76680;BME280;65597;51.520;-0.224;2023-04-03T11:44:27;102975.12;;;12.12;28.72
76680;BME280;65597;51.520;-0.224;2023-04-03T11:49:00;102966.73;;;12.41;27.81
76680;BME280;65597;51.520;-0.224;2023-04-03T11:53:51;102969.30;;;12.44;27.29
76680;BME280;65597;51.520;-0.224;2023-04-03T11:56:27;102966.46;;;12.55;26.83
76680;BME280;65597;51.520;-0.224;2023-04-03T12:01:09;102962.29;;;12.72;25.92
76680;BME280;65597;51.520;-0.224;2023-04-03T12:06:41;102962.39;;;12.41;26.15
76680;BME280;65597;51.520;-0.224;2023-04-03T12:08:25;102955.42;;;12.42;26.19
76680;BME280;65597;51.520;-0.224;2023-04-03T12:13:15;102950.39;;;12.75;27.25
76680;BME280;65597;51.520;-0.224;2023-04-03T12:15:49;102933.71;;;13.25;26.50
76680;BME280;65597;51.520;-0.224;2023-04-03T12:23:07;102938.55;;;13.78;25.05
76680;BME280;65597;51.520;-0.224;2023-04-03T12:27:44;102933.74;;;13.83;24.80
76680;BME280;65597;51.520;-0.224;2023-04-03T12:30:19;102935.80;;;13.88;25.93
76680;BME280;65597;51.520;-0.224;2023-04-03T12:32:43;102937.39;;;14.07;24.38
76680;BME280;65597;51.520;-0.224;2023-04-03T12:35:12;102934.97;;;14.31;25.24
76680;BME280;65597;51.520;-0.224;2023-04-03T12:37:39;102932.27;;;14.53;23.79
76680;BME280;65597;51.520;-0.224;2023-04-03T12:39:54;102926.68;;;14.47;24.54
76680;BME280;65597;51.520;-0.224;2023-04-03T12:42:26;102926.64;;;14.73;23.30
76680;BME280;65597;51.520;-0.224;2023-04-03T12:44:50;102927.64;;;14.88;23.43
76680;BME280;65597;51.520;-0.224;2023-04-03T12:47:23;102928.37;;;14.53;23.23
76680;BME280;65597;51.520;-0.224;2023-04-03T12:49:35;102917.99;;;14.38;23.24
76680;BME280;65597;51.520;-0.224;2023-04-03T12:51:58;102915.20;;;14.46;23.14
76680;BME280;65597;51.520;-0.224;2023-04-03T12:54:26;102913.47;;;14.70;22.54
76680;BME280;65597;51.520;-0.224;2023-04-03T12:56:50;102916.15;;;14.93;22.94
76680;BME280;65597;51.520;-0.224;2023-04-03T12:59:16;102911.86;;;14.98;22.52
76680;BME280;65597;51.520;-0.224;2023-04-03T13:01:39;102912.80;;;15.35;23.36
76680;BME280;65597;51.520;-0.224;2023-04-03T13:04:04;102909.07;;;15.66;23.21